Time;durP1;ratioP1;P1;durP2;ratioP2;P2;SDS_P1;SDS_P2;PMS_P1;PMS_P2;Temp;Humidity;BMP_temperature;BMP_pressure;BME280_temperature;BME280_humidity;BME280_pressure;Samples;Min_cycle;Max_cycle;Signal;HPM_P1;HPM_P2
2022/12/06 00:02:15;;;;;;;11.60;7.70;;;;;;;3.13;100.00;102179.63;10381778;28;20390;-68
2022/12/06 00:07:15;;;;;;;14.75;7.47;;;;;;;3.07;100.00;102184.59;10381000;28;20042;-68
2022/12/06 00:12:16;;;;;;;22.05;7.25;;;;;;;3.02;100.00;102193.81;10395939;28;20058;-68
2022/12/06 00:17:16;;;;;;;12.00;6.88;;;;;;;3.04;100.00;102188.38;10381050;28;20044;-68
2022/12/06 00:22:17;;;;;;;15.88;5.80;;;;;;;3.11;100.00;102180.72;10379578;28;20064;-67
2022/12/06 00:27:17;;;;;;;10.00;6.65;;;;;;;3.20;100.00;102174.66;10379907;28;20037;-67
2022/12/06 00:32:18;;;;;;;8.23;5.57;;;;;;;3.23;100.00;102175.28;10380937;28;20069;-68
2022/12/06 00:37:18;;;;;;;12.50;7.13;;;;;;;3.20;100.00;102166.63;10381743;28;20458;-67
2022/12/06 00:42:19;;;;;;;7.25;5.25;;;;;;;3.13;100.00;102170.75;10396022;28;20037;-68
2022/12/06 00:47:19;;;;;;;11.10;5.60;;;;;;;3.05;100.00;102173.16;10378654;28;20038;-68
2022/12/06 00:52:20;;;;;;;11.43;5.28;;;;;;;2.98;100.00;102165.59;10379692;28;20084;-67
2022/12/06 00:57:20;;;;;;;5.68;4.22;;;;;;;2.95;100.00;102163.16;10378925;28;20030;-67
2022/12/06 01:02:21;;;;;;;9.93;5.68;;;;;;;2.91;100.00;102169.72;10378816;28;20068;-68
2022/12/06 01:07:21;;;;;;;12.32;5.57;;;;;;;2.87;100.00;102176.28;10379190;28;20075;-67
2022/12/06 01:12:22;;;;;;;16.67;6.05;;;;;;;3.00;100.00;102163.66;10379455;28;20030;-68
2022/12/06 01:17:22;;;;;;;11.25;4.63;;;;;;;3.31;100.00;102166.63;10379435;28;20087;-67
2022/12/06 01:22:22;;;;;;;16.52;6.25;;;;;;;3.68;100.00;102161.94;10379072;28;20088;-68
2022/12/06 01:27:23;;;;;;;14.02;5.45;;;;;;;3.93;100.00;102158.16;10379432;28;20490;-68
2022/12/06 01:32:23;;;;;;;4.88;4.47;;;;;;;4.09;100.00;102155.09;10394218;28;20402;-68
2022/12/06 01:37:24;;;;;;;5.53;4.70;;;;;;;4.20;100.00;102162.25;10378674;28;20092;-68
2022/12/06 01:42:24;;;;;;;8.57;4.10;;;;;;;4.27;100.00;102152.72;10378519;28;20132;-68
2022/12/06 01:47:29;;;;;;;7.28;4.53;;;;;;;4.32;100.00;102168.44;10392903;28;20470;-68
2022/12/06 01:52:50;;;;;;;4.38;3.38;;;;;;;4.34;100.00;102151.25;10375153;28;20030;-68
2022/12/06 01:57:50;;;;;;;8.45;4.85;;;;;;;4.35;100.00;102154.78;10375397;28;20037;-68
2022/12/06 02:02:51;;;;;;;3.35;2.85;;;;;;;4.29;100.00;102153.44;10391756;28;20386;-67
2022/12/06 02:07:51;;;;;;;9.52;4.50;;;;;;;4.28;100.00;102149.06;10376247;28;20362;-67
2022/12/06 02:12:53;;;;;;;6.72;3.55;;;;;;;4.27;100.00;102155.41;10374349;28;20057;-67
2022/12/06 02:17:58;;;;;;;6.03;4.07;;;;;;;4.24;100.00;102147.59;10375928;28;20036;-67
2022/12/06 02:23:23;;;;;;;7.47;3.58;;;;;;;4.38;100.00;102146.50;10374367;28;20057;-67
2022/12/06 02:28:53;;;;;;;6.63;4.28;;;;;;;4.51;100.00;102140.97;10376315;28;20041;-68
2022/12/06 02:34:04;;;;;;;12.98;4.30;;;;;;;4.56;100.00;102136.94;10375310;28;20538;-68
2022/12/06 02:39:18;;;;;;;6.25;3.97;;;;;;;4.59;100.00;102147.38;10374960;28;20348;-67
2022/12/06 02:44:41;;;;;;;5.60;4.55;;;;;;;4.63;100.00;102140.78;10376768;28;20319;-67
2022/12/06 02:49:45;;;;;;;9.52;4.40;;;;;;;4.70;100.00;102142.97;10387461;28;20045;-68
2022/12/06 02:54:46;;;;;;;9.93;4.28;;;;;;;4.70;100.00;102143.81;10358427;28;20068;-67
2022/12/06 02:59:51;;;;;;;15.82;4.13;;;;;;;4.75;100.00;102148.78;10359149;28;20033;-67
2022/12/06 03:05:09;;;;;;;10.82;4.65;;;;;;;4.79;100.00;102144.88;10375008;28;20029;-67
2022/12/06 03:10:15;;;;;;;8.80;4.45;;;;;;;4.84;100.00;102145.31;10390995;28;20351;-67
2022/12/06 03:15:37;;;;;;;11.70;4.43;;;;;;;4.85;100.00;102137.16;10374956;28;20052;-67
2022/12/06 03:21:05;;;;;;;9.13;3.53;;;;;;;4.88;100.00;102131.53;10389239;28;20466;-68
2022/12/06 03:26:06;;;;;;;6.43;3.00;;;;;;;4.89;100.00;102138.59;10388005;28;20033;-68
2022/12/06 03:31:08;;;;;;;4.45;3.35;;;;;;;4.89;100.00;102135.06;10373643;28;20045;-67
2022/12/06 03:36:10;;;;;;;3.08;2.80;;;;;;;4.91;100.00;102146.50;10373626;28;20026;-67
2022/12/06 03:41:10;;;;;;;11.50;3.63;;;;;;;4.86;100.00;102141.53;10373386;28;20101;-68
2022/12/06 03:46:16;;;;;;;4.53;2.20;;;;;;;4.53;100.00;102145.22;10389677;28;20044;-68
2022/12/06 03:51:22;;;;;;;10.00;3.00;;;;;;;4.09;100.00;102141.69;10372225;28;20034;-68
2022/12/06 03:56:23;;;;;;;8.27;3.20;;;;;;;3.79;100.00;102146.81;10388966;28;20026;-68
2022/12/06 04:01:23;;;;;;;4.60;2.25;;;;;;;3.48;100.00;102134.06;10373178;28;20034;-68
2022/12/06 04:06:24;;;;;;;3.35;3.08;;;;;;;3.29;100.00;102138.28;10374326;28;20046;-68
2022/12/06 04:11:24;;;;;;;7.18;3.70;;;;;;;3.14;100.00;102145.69;10373758;28;20034;-67
2022/12/06 04:48:19;;;;;;;10.57;3.60;;;;;;;3.16;100.00;102128.53;10380860;28;20037;-68
2022/12/06 04:53:20;;;;;;;14.13;4.28;;;;;;;3.18;100.00;102131.94;10395259;28;20466;-68
2022/12/06 04:58:20;;;;;;;6.43;3.75;;;;;;;3.29;100.00;102131.13;10379191;28;20026;-68
2022/12/06 05:03:21;;;;;;;5.72;3.65;;;;;;;3.39;100.00;102131.25;10378489;28;20066;-67
2022/12/06 05:08:21;;;;;;;4.60;2.90;;;;;;;3.44;100.00;102127.22;10379030;28;20124;-68
2022/12/06 05:13:21;;;;;;;3.70;3.38;;;;;;;3.45;100.00;102114.69;10379727;28;20465;-68
2022/12/06 05:18:23;;;;;;;8.07;3.75;;;;;;;3.35;100.00;102119.94;10378700;28;20121;-67
2022/12/06 05:23:23;;;;;;;7.60;3.35;;;;;;;3.31;100.00;102117.59;10378865;28;20042;-68
2022/12/06 05:28:23;;;;;;;3.90;3.03;;;;;;;3.40;100.00;102123.09;10377769;28;20493;-68
2022/12/06 05:33:24;;;;;;;8.13;3.67;;;;;;;3.42;100.00;102115.78;10338144;28;20046;-67
2022/12/06 05:38:24;;;;;;;4.45;3.30;;;;;;;3.39;100.00;102124.06;10377375;28;20060;-67
2022/12/06 05:43:25;;;;;;;5.47;3.20;;;;;;;3.48;100.00;102119.81;10378972;28;20038;-68
2022/12/06 05:48:25;;;;;;;3.17;2.42;;;;;;;3.43;100.00;102122.84;10376536;28;20042;-67
2022/12/06 05:53:26;;;;;;;6.93;3.00;;;;;;;3.49;100.00;102125.03;10377255;28;20057;-68
2022/12/06 05:58:26;;;;;;;12.93;3.83;;;;;;;3.60;100.00;102117.97;10377048;28;20092;-67
2022/12/06 06:03:27;;;;;;;7.53;3.70;;;;;;;3.62;100.00;102121.38;10377084;28;20049;-68
2022/12/06 06:08:27;;;;;;;4.78;3.22;;;;;;;3.62;100.00;102118.72;10377112;28;20092;-67
2022/12/06 06:13:28;;;;;;;10.20;3.08;;;;;;;3.73;100.00;102118.69;10391594;28;20505;-67
2022/12/06 06:18:28;;;;;;;3.58;3.20;;;;;;;3.75;100.00;102126.63;10377745;28;20050;-67
2022/12/06 06:23:28;;;;;;;3.78;3.38;;;;;;;3.83;100.00;102127.72;10374960;28;20120;-67
2022/12/06 06:28:29;;;;;;;4.10;3.63;;;;;;;3.90;100.00;102131.59;10374933;28;20073;-67
2022/12/06 06:33:29;;;;;;;4.85;3.70;;;;;;;3.77;100.00;102120.16;10374820;28;20026;-67
2022/12/06 06:38:30;;;;;;;10.77;3.45;;;;;;;3.44;100.00;102113.81;10391578;28;20121;-67
2022/12/06 06:43:30;;;;;;;8.20;3.60;;;;;;;3.16;100.00;102117.84;10373513;28;20037;-67
2022/12/06 06:48:34;;;;;;;6.90;3.72;;;;;;;2.82;100.00;102111.56;10391031;28;20064;-67
2022/12/06 06:53:35;;;;;;;7.53;3.45;;;;;;;2.52;100.00;102112.03;10389876;28;20115;-67
2022/12/06 06:58:36;;;;;;;3.85;3.42;;;;;;;2.35;100.00;102107.13;10375004;28;20034;-68
2022/12/06 07:03:36;;;;;;;5.30;3.30;;;;;;;2.14;100.00;102109.53;10389347;28;20117;-67
2022/12/06 07:08:37;;;;;;;4.97;4.55;;;;;;;2.06;100.00;102112.78;10374443;28;20052;-67
2022/12/06 07:13:38;;;;;;;7.10;3.30;;;;;;;1.95;100.00;102110.91;10372981;28;20072;-67
2022/12/06 07:18:38;;;;;;;6.88;4.10;;;;;;;1.95;100.00;102108.25;10373371;28;20351;-67
2022/12/06 07:23:39;;;;;;;7.60;4.15;;;;;;;1.89;100.00;102103.34;10374503;28;20092;-68
2022/12/06 07:28:41;;;;;;;6.95;5.22;;;;;;;1.83;100.00;102106.47;10373345;28;20060;-67
2022/12/06 07:33:41;;;;;;;15.32;5.38;;;;;;;1.70;100.00;102116.31;10374430;28;20125;-67
2022/12/06 07:38:42;;;;;;;6.22;4.55;;;;;;;1.62;100.00;102107.03;10373640;28;20108;-67
2022/12/06 07:49:01;;;;;;;7.40;5.05;;;;;;;1.62;100.00;102123.03;10386348;28;20025;-67
2022/12/06 07:54:02;;;;;;;6.95;4.47;;;;;;;1.69;100.00;102130.63;10372627;28;20030;-68
2022/12/06 07:59:02;;;;;;;6.50;5.40;;;;;;;1.95;100.00;102142.97;10388284;28;20030;-67
2022/12/06 08:04:04;;;;;;;6.15;5.22;;;;;;;2.17;100.00;102144.94;10373441;28;20037;-67
2022/12/06 08:09:04;;;;;;;10.43;5.93;;;;;;;2.62;100.00;102125.59;10388838;28;20033;-67
2022/12/06 08:14:05;;;;;;;10.60;7.68;;;;;;;3.39;100.00;102121.38;10396794;28;20033;-67
2022/12/06 08:19:05;;;;;;;16.50;8.48;;;;;;;4.22;100.00;102124.59;10381832;28;20041;-68
2022/12/06 08:24:06;;;;;;;12.10;9.07;;;;;;;5.02;100.00;102127.66;10379203;28;20054;-67
2022/12/06 08:29:06;;;;;;;17.25;8.68;;;;;;;5.79;100.00;102121.81;10380921;28;20505;-68
2022/12/06 08:34:07;;;;;;;9.25;8.35;;;;;;;6.07;100.00;102127.47;10379812;28;20049;-67
2022/12/06 08:39:09;;;;;;;11.55;8.75;;;;;;;5.64;100.00;102115.13;10378806;28;20123;-67
2022/12/06 08:44:11;;;;;;;19.98;8.98;;;;;;;5.86;100.00;102119.44;10377976;28;20036;-68
2022/12/06 08:49:12;;;;;;;15.35;8.10;;;;;;;6.46;100.00;102125.69;10379339;28;20386;-67
2022/12/06 08:54:14;;;;;;;13.25;8.10;;;;;;;6.78;100.00;102127.25;10380093;28;20064;-68
2022/12/06 08:59:14;;;;;;;6.88;6.28;;;;;;;7.54;100.00;102119.13;10395083;28;20061;-67
2022/12/06 09:04:18;;;;;;;13.65;5.70;;;;;;;8.64;100.00;102117.38;10378276;28;20095;-68
2022/12/06 09:09:19;;;;;;;15.13;5.97;;;;;;;9.47;100.00;102117.81;10362493;28;20022;-67
2022/12/06 09:14:19;;;;;;;8.57;4.20;;;;;;;10.29;100.00;102119.00;10378649;28;20470;-67
2022/12/06 09:19:20;;;;;;;13.77;5.45;;;;;;;9.29;100.00;102124.13;10394473;28;20034;-67
2022/12/06 09:24:20;;;;;;;9.27;4.45;;;;;;;8.56;100.00;102121.69;10379644;28;20382;-67
2022/12/06 09:29:21;;;;;;;13.70;3.97;;;;;;;8.20;100.00;102119.94;10378454;28;20374;-67
2022/12/06 09:34:21;;;;;;;5.25;3.85;;;;;;;7.98;100.00;102115.81;10377251;28;20069;-67
2022/12/06 09:39:25;;;;;;;5.82;4.35;;;;;;;7.76;100.00;102119.78;10376928;28;20037;-68
2022/12/06 09:44:51;;;;;;;8.40;4.32;;;;;;;7.88;100.00;102123.94;10375619;28;20054;-67
2022/12/06 09:50:10;;;;;;;7.45;4.68;;;;;;;8.04;100.00;102131.38;10392821;28;20494;-68
2022/12/06 09:55:35;;;;;;;8.70;4.93;;;;;;;7.78;100.00;102123.16;10376369;28;20026;-67
2022/12/06 10:00:48;;;;;;;7.38;4.88;;;;;;;7.54;100.00;102129.06;10376714;28;20041;-67
2022/12/06 10:06:12;;;;;;;9.73;4.30;;;;;;;7.41;100.00;102126.72;10392160;28;20057;-67
2022/12/06 10:11:49;;;;;;;10.75;4.65;;;;;;;7.28;100.00;102118.09;10371663;28;20076;-67
2022/12/06 10:16:59;;;;;;;8.05;3.92;;;;;;;7.72;100.00;102108.41;10376000;28;20033;-68
2022/12/06 10:21:59;;;;;;;18.15;4.28;;;;;;;8.92;100.00;102115.41;10390690;28;20060;-67
2022/12/06 10:27:09;;;;;;;9.82;3.42;;;;;;;8.42;100.00;102124.91;10375633;28;20121;-67
2022/12/06 10:32:27;;;;;;;5.18;3.90;;;;;;;8.23;100.00;102115.09;10389851;28;20033;-68
2022/12/06 10:37:56;;;;;;;11.32;4.10;;;;;;;8.34;100.00;102109.47;10374654;28;20070;-67
2022/12/06 10:43:24;;;;;;;8.00;4.15;;;;;;;8.19;100.00;102102.03;10376427;28;20036;-67
2022/12/06 10:48:34;;;;;;;9.85;3.25;;;;;;;8.43;100.00;102099.63;10382551;28;20049;-68
2022/12/06 10:53:39;;;;;;;10.73;4.10;;;;;;;8.25;100.00;102090.66;10389589;28;20481;-67
2022/12/06 10:58:47;;;;;;;11.98;3.97;;;;;;;7.93;100.00;102084.75;10357065;28;20037;-67
2022/12/06 11:04:09;;;;;;;9.30;3.70;;;;;;;7.61;100.00;102082.50;10373354;28;20585;-67
2022/12/06 11:09:13;;;;;;;5.03;3.67;;;;;;;7.39;100.00;102089.13;10373526;28;20030;-67
2022/12/06 11:14:31;;;;;;;12.13;4.03;;;;;;;7.26;100.00;102093.13;10374699;28;20056;-68
2022/12/06 11:19:37;;;;;;;9.43;3.72;;;;;;;7.22;100.00;102088.03;10373375;28;20125;-67
2022/12/06 11:25:01;;;;;;;10.27;2.03;;;;;;;7.16;100.00;102080.53;10373296;28;20058;-68
2022/12/06 11:30:03;;;;;;;4.43;2.15;;;;;;;7.18;100.00;102065.09;10372034;28;20402;-67
2022/12/06 11:35:04;;;;;;;6.63;1.67;;;;;;;7.30;100.00;102071.13;10372942;28;20374;-67
2022/12/06 11:40:05;;;;;;;4.45;1.92;;;;;;;7.43;100.00;102057.31;10388821;28;20038;-68
2022/12/06 11:45:09;;;;;;;3.58;1.63;;;;;;;7.84;100.00;102060.53;10392311;28;20163;-67
2022/12/06 11:50:15;;;;;;;0.73;0.73;;;;;;;8.69;100.00;102058.34;10380424;28;20128;-68
2022/12/06 11:55:21;;;;;;;1.58;1.00;;;;;;;9.74;100.00;102046.44;10380966;28;20030;-67
2022/12/06 12:00:22;;;;;;;9.35;1.55;;;;;;;10.23;100.00;102047.38;10365866;28;20109;-68
2022/12/06 12:05:33;;;;;;;2.97;0.93;;;;;;;10.06;100.00;102050.25;10383163;28;20025;-68
2022/12/06 12:10:38;;;;;;;2.25;0.98;;;;;;;9.68;100.00;102047.94;10381003;28;20101;-68
2022/12/06 12:15:40;;;;;;;1.08;1.08;;;;;;;9.37;100.00;102044.94;10396419;28;20128;-68
2022/12/06 12:20:44;;;;;;;1.42;1.25;;;;;;;9.24;100.00;102033.72;10380156;28;20050;-68
2022/12/06 12:26:01;;;;;;;1.23;1.13;;;;;;;9.06;100.00;102037.34;10381049;28;20386;-67
2022/12/06 12:31:20;;;;;;;0.65;0.65;;;;;;;8.95;100.00;102028.66;10381447;28;20030;-68
2022/12/06 12:36:26;;;;;;;14.25;1.50;;;;;;;8.74;100.00;102021.78;10379095;28;20485;-68
2022/12/06 12:41:37;;;;;;;0.95;0.95;;;;;;;8.38;100.00;102021.81;10380412;28;20458;-67
2022/12/06 12:46:41;;;;;;;1.73;1.02;;;;;;;8.08;100.00;102020.34;10395883;28;20042;-67
2022/12/06 12:51:41;;;;;;;4.30;1.52;;;;;;;8.00;100.00;102027.50;10378767;28;20022;-68
2022/12/06 12:56:41;;;;;;;3.33;1.92;;;;;;;8.03;100.00;102016.41;10393643;28;20121;-67
2022/12/06 13:01:51;;;;;;;2.10;2.00;;;;;;;7.94;100.00;102015.44;10378399;28;20041;-67
2022/12/06 13:06:54;;;;;;;4.90;2.22;;;;;;;7.90;100.00;102006.81;10380708;28;20038;-67
2022/12/06 13:12:04;;;;;;;2.95;1.73;;;;;;;7.87;100.00;102000.88;10377658;28;20425;-67
2022/12/06 13:17:06;;;;;;;4.18;2.38;;;;;;;7.80;100.00;102000.66;10393743;28;20043;-67
2022/12/06 13:22:13;;;;;;;4.05;2.17;;;;;;;7.80;100.00;101999.81;10393782;28;20100;-67
2022/12/06 13:27:15;;;;;;;3.05;2.33;;;;;;;7.68;100.00;101986.53;10362015;28;20022;-67
2022/12/06 13:32:17;;;;;;;8.60;3.30;;;;;;;7.67;100.00;101984.00;10393359;28;20034;-67
2022/12/06 13:37:42;;;;;;;3.10;2.33;;;;;;;7.69;100.00;101992.81;10376781;28;20409;-67
2022/12/06 13:42:44;;;;;;;2.13;1.75;;;;;;;7.52;100.00;101980.97;10377198;28;20029;-68
2022/12/06 13:47:48;;;;;;;1.00;1.00;;;;;;;7.39;100.00;101983.16;10377600;28;20042;-67
2022/12/06 13:52:48;;;;;;;1.38;0.85;;;;;;;7.31;100.00;101983.09;10393462;28;20113;-67
2022/12/06 13:58:09;;;;;;;4.43;2.30;;;;;;;7.22;100.00;101985.66;10392905;28;20443;-67
2022/12/06 14:03:12;;;;;;;4.75;1.13;;;;;;;7.18;100.00;101984.28;10355429;28;20050;-67
2022/12/06 14:08:12;;;;;;;3.30;0.70;;;;;;;7.22;100.00;101974.91;10376340;28;20030;-67
2022/12/06 14:13:20;;;;;;;20.48;2.25;;;;;;;7.24;100.00;101966.66;10377059;28;20030;-67
2022/12/06 14:18:22;;;;;;;3.17;1.80;;;;;;;7.33;100.00;101954.13;10358434;28;20026;-67
2022/12/06 14:23:25;;;;;;;2.70;2.03;;;;;;;7.48;100.00;101962.56;10358366;28;20093;-67
2022/12/06 14:28:27;;;;;;;6.22;1.40;;;;;;;7.45;100.00;101969.09;10375923;28;20057;-67
2022/12/06 14:33:27;;;;;;;2.53;1.23;;;;;;;7.33;100.00;101951.44;10374970;28;20501;-65
2022/12/06 14:38:28;;;;;;;1.13;1.13;;;;;;;7.28;100.00;101953.75;10376450;28;20108;-66
2022/12/06 14:43:30;;;;;;;2.40;1.33;;;;;;;7.26;100.00;101947.66;10390893;28;20130;-67
2022/12/06 14:50:22;;;;;;;3.35;2.15;;;;;;;7.31;100.00;101931.91;10374932;28;20041;-67
2022/12/06 14:53:51;;;;;;;2.00;1.90;;;;;;;7.31;100.00;101945.38;10388517;28;20053;-68
2022/12/06 14:58:51;;;;;;;1.48;1.38;;;;;;;7.25;100.00;101941.41;10373875;28;20037;-67
2022/12/06 15:04:27;;;;;;;1.98;1.75;;;;;;;6.86;100.00;101914.69;10358467;28;20045;-68
2022/12/06 15:09:28;;;;;;;2.35;1.70;;;;;;;6.74;100.00;101921.25;10374115;28;20034;-70
2022/12/06 15:14:38;;;;;;;1.77;1.52;;;;;;;6.61;100.00;101924.25;10373567;28;20034;-70
2022/12/06 15:19:43;;;;;;;0.98;0.90;;;;;;;6.58;100.00;101921.88;10374016;28;20033;-70
2022/12/06 15:24:44;;;;;;;3.80;1.63;;;;;;;6.65;100.00;101925.66;10373504;28;20046;-70
2022/12/06 15:29:44;;;;;;;1.63;1.52;;;;;;;6.63;100.00;101927.63;10373178;28;20042;-70
2022/12/06 15:34:45;;;;;;;4.60;2.55;;;;;;;6.60;100.00;101919.84;10374078;28;20134;-70
2022/12/06 15:39:45;;;;;;;2.92;2.72;;;;;;;6.58;100.00;101919.16;10389335;28;20125;-70
2022/12/06 15:44:46;;;;;;;5.63;2.30;;;;;;;6.58;100.00;101931.78;10389006;28;20382;-70
2022/12/06 15:49:50;;;;;;;3.67;2.35;;;;;;;6.49;100.00;101911.97;10372969;28;20120;-70
2022/12/06 15:54:50;;;;;;;3.45;2.17;;;;;;;6.50;100.00;101919.03;10374649;28;20041;-70
2022/12/06 15:59:50;;;;;;;4.05;2.33;;;;;;;6.48;100.00;101921.03;10389071;28;20041;-70
2022/12/06 16:04:51;;;;;;;3.60;3.30;;;;;;;6.43;100.00;101910.72;10374533;28;20034;-70
2022/12/06 16:09:51;;;;;;;5.40;3.50;;;;;;;6.41;100.00;101918.06;10373838;28;20074;-70
2022/12/06 16:14:52;;;;;;;1.63;1.10;;;;;;;6.48;100.00;101929.13;10372663;28;20034;-70
2022/12/06 16:25:31;;;;;;;3.25;1.52;;;;;;;6.47;100.00;101906.72;10247849;29;20066;-70
2022/12/06 16:30:32;;;;;;;5.28;1.50;;;;;;;6.49;100.00;101906.59;10345390;28;20049;-70
2022/12/06 16:35:33;;;;;;;0.93;0.93;;;;;;;6.46;100.00;101906.88;10378965;28;20397;-70
2022/12/06 16:40:33;;;;;;;7.20;1.73;;;;;;;6.43;100.00;101893.72;10378794;28;20034;-69
2022/12/06 16:45:35;;;;;;;1.83;1.00;;;;;;;6.39;100.00;101893.16;10379987;28;20083;-70
2022/12/06 16:50:36;;;;;;;3.70;2.20;;;;;;;6.39;100.00;101892.31;10395103;28;20076;-70
2022/12/06 16:55:37;;;;;;;8.07;2.10;;;;;;;6.29;100.00;101890.50;10380842;28;20095;-70
2022/12/06 17:00:38;;;;;;;3.72;2.50;;;;;;;6.09;100.00;101887.97;10395062;28;20473;-70
2022/12/06 17:05:38;;;;;;;7.05;4.65;;;;;;;5.78;100.00;101890.81;10378002;28;20101;-70
2022/12/06 17:10:39;;;;;;;6.57;5.93;;;;;;;5.47;100.00;101882.03;10361345;28;20355;-70
2022/12/06 17:15:40;;;;;;;6.57;4.55;;;;;;;5.18;100.00;101871.25;10378120;28;20041;-70
2022/12/06 17:20:40;;;;;;;8.68;6.45;;;;;;;4.88;100.00;101887.28;10378673;28;20076;-70
2022/12/06 17:25:41;;;;;;;9.15;8.05;;;;;;;4.76;100.00;101880.31;10379552;28;20038;-70
2022/12/06 17:30:41;;;;;;;11.23;7.88;;;;;;;4.72;100.00;101881.56;10393112;28;20113;-70
2022/12/06 17:35:41;;;;;;;8.85;6.05;;;;;;;4.69;100.00;101881.84;10378494;28;20072;-70
2022/12/06 17:40:42;;;;;;;16.27;8.70;;;;;;;4.75;100.00;101883.97;10376824;28;20052;-70
2022/12/06 17:45:42;;;;;;;13.52;7.45;;;;;;;4.96;100.00;101872.34;10376351;28;20124;-70
2022/12/06 17:50:42;;;;;;;14.82;5.63;;;;;;;5.02;100.00;101864.56;10377921;28;20034;-71
2022/12/06 17:55:43;;;;;;;9.23;6.55;;;;;;;4.99;100.00;101866.69;10377983;28;20418;-71
2022/12/06 18:00:43;;;;;;;13.90;5.05;;;;;;;4.89;100.00;101874.72;10377240;28;20049;-70
2022/12/06 18:05:46;;;;;;;7.60;4.38;;;;;;;4.81;100.00;101878.06;10377025;28;20121;-70
2022/12/06 18:10:47;;;;;;;11.23;3.55;;;;;;;4.96;100.00;101878.53;10375534;28;20041;-71
2022/12/06 18:15:47;;;;;;;5.53;4.15;;;;;;;5.13;100.00;101874.34;10392412;28;20045;-70
2022/12/06 18:20:47;;;;;;;7.25;3.20;;;;;;;5.13;100.00;101880.56;10391320;28;20112;-70
2022/12/06 18:25:48;;;;;;;7.03;4.03;;;;;;;5.12;100.00;101868.13;10374564;28;20030;-70
2022/12/06 18:30:48;;;;;;;12.00;3.65;;;;;;;4.96;100.00;101883.06;10377602;28;20033;-70
2022/12/06 18:35:52;;;;;;;4.78;3.65;;;;;;;4.83;100.00;101878.78;10391205;28;20042;-70
2022/12/06 18:41:03;;;;;;;10.80;5.95;;;;;;;4.79;100.00;101881.91;10391137;28;20030;-71
2022/12/06 18:46:15;;;;;;;8.18;6.25;;;;;;;4.69;100.00;101879.16;10376899;28;20034;-70
2022/12/06 18:51:34;;;;;;;6.10;4.97;;;;;;;4.57;100.00;101877.56;10374397;28;20026;-70
2022/12/06 18:56:34;;;;;;;8.82;5.68;;;;;;;4.42;100.00;101883.25;10375080;28;20032;-71
2022/12/06 19:01:36;;;;;;;15.35;4.82;;;;;;;4.35;100.00;101882.09;10376224;28;20040;-71
2022/12/06 19:06:36;;;;;;;16.35;4.93;;;;;;;4.33;100.00;101877.84;10373324;28;20025;-70
2022/12/06 19:11:38;;;;;;;11.82;6.78;;;;;;;4.51;100.00;101900.41;10357793;28;20032;-70
2022/12/06 19:16:40;;;;;;;9.85;3.40;;;;;;;5.03;100.00;101906.53;10375287;28;20042;-70
2022/12/06 19:21:42;;;;;;;13.57;2.80;;;;;;;5.30;100.00;101887.09;10375163;28;20072;-68
2022/12/06 19:26:43;;;;;;;4.10;2.15;;;;;;;5.41;100.00;101885.28;10373194;28;20076;-69
2022/12/06 19:31:43;;;;;;;3.65;1.75;;;;;;;5.47;100.00;101882.88;10390061;28;20041;-69
2022/12/06 19:36:44;;;;;;;4.13;3.30;;;;;;;5.40;100.00;101876.38;10375557;28;20045;-69
2022/12/06 19:47:03;;;;;;;3.75;2.92;;;;;;;5.43;100.00;101892.22;10375776;28;20042;-69
2022/12/06 19:52:04;;;;;;;10.48;2.83;;;;;;;5.51;100.00;101888.81;10326961;28;20053;-69
2022/12/06 19:57:04;;;;;;;4.68;2.55;;;;;;;5.64;100.00;101891.22;10373535;28;20057;-70
2022/12/06 20:02:05;;;;;;;8.02;3.42;;;;;;;5.62;100.00;101894.06;10376177;28;20398;-69
2022/12/06 20:07:05;;;;;;;6.18;2.45;;;;;;;5.45;100.00;101887.53;10393034;28;20128;-69
2022/12/06 20:12:06;;;;;;;3.50;1.95;;;;;;;5.45;100.00;101892.91;10380652;28;20029;-68
2022/12/06 20:17:08;;;;;;;9.32;2.03;;;;;;;5.55;100.00;101891.09;10381635;28;20485;-68
2022/12/06 20:22:10;;;;;;;10.32;3.25;;;;;;;5.58;100.00;101887.25;10380830;28;20145;-68
2022/12/06 20:27:10;;;;;;;2.97;2.22;;;;;;;5.40;100.00;101891.66;10362995;28;20030;-69
2022/12/06 20:32:10;;;;;;;8.13;2.47;;;;;;;5.13;100.00;101887.75;10380406;28;20026;-68
2022/12/06 20:37:11;;;;;;;6.25;3.28;;;;;;;4.83;100.00;101894.88;10380585;28;20132;-68
2022/12/06 20:42:11;;;;;;;15.07;3.35;;;;;;;4.74;100.00;101889.47;10397015;28;20058;-68
2022/12/06 20:47:12;;;;;;;7.55;2.97;;;;;;;4.71;100.00;101890.59;10379985;28;20038;-68
2022/12/06 20:52:12;;;;;;;6.72;3.72;;;;;;;4.87;100.00;101893.63;10378996;28;20514;-69
2022/12/06 20:57:13;;;;;;;5.55;4.53;;;;;;;5.09;100.00;101891.72;10379280;28;20065;-69
2022/12/06 21:02:13;;;;;;;6.05;3.17;;;;;;;5.24;100.00;101884.97;10378525;28;20038;-69
2022/12/06 21:07:13;;;;;;;11.70;3.03;;;;;;;5.21;100.00;101882.56;10378137;28;20053;-69
2022/12/06 21:12:14;;;;;;;23.33;4.63;;;;;;;5.06;100.00;101876.72;10377745;28;20038;-69
2022/12/06 21:17:14;;;;;;;9.55;3.72;;;;;;;4.93;100.00;101888.72;10393681;28;20080;-69
2022/12/06 21:22:15;;;;;;;11.60;4.70;;;;;;;4.74;100.00;101886.81;10379785;28;20060;-69
2022/12/06 21:27:15;;;;;;;5.38;3.45;;;;;;;4.62;100.00;101888.72;10377902;28;20077;-71
2022/12/06 21:32:15;;;;;;;6.45;2.58;;;;;;;4.68;100.00;101893.56;10378013;28;20033;-69
2022/12/06 21:37:16;;;;;;;8.48;2.63;;;;;;;4.98;100.00;101908.78;10376685;28;20088;-70
2022/12/06 21:42:19;;;;;;;10.45;3.08;;;;;;;5.23;100.00;101902.09;10377973;28;20405;-69
2022/12/06 21:47:20;;;;;;;9.43;3.30;;;;;;;5.33;100.00;101894.88;10377718;28;20041;-70
2022/12/06 21:52:20;;;;;;;4.25;2.58;;;;;;;5.15;100.00;101895.69;10392968;28;20069;-69
2022/12/06 21:57:21;;;;;;;13.60;2.90;;;;;;;4.85;100.00;101897.41;10336544;28;20409;-69
2022/12/06 22:02:21;;;;;;;11.93;3.05;;;;;;;4.53;100.00;101895.75;10376841;28;20033;-69
2022/12/06 22:07:21;;;;;;;14.63;4.97;;;;;;;4.33;100.00;101894.78;10377815;28;20374;-70
2022/12/06 22:12:22;;;;;;;10.48;3.45;;;;;;;4.08;100.00;101900.56;10392122;28;20034;-69
2022/12/06 22:17:22;;;;;;;8.13;3.20;;;;;;;3.91;100.00;101910.03;10376851;28;20130;-69
2022/12/06 22:22:23;;;;;;;6.97;4.00;;;;;;;3.79;100.00;101905.69;10392370;28;20439;-70
2022/12/06 22:27:23;;;;;;;10.25;4.57;;;;;;;3.78;100.00;101906.69;10375901;28;20041;-70
2022/12/06 22:32:23;;;;;;;5.40;3.55;;;;;;;3.94;100.00;101907.94;10391157;28;20037;-70
2022/12/06 22:37:24;;;;;;;5.72;4.25;;;;;;;3.93;100.00;101911.59;10375000;28;20123;-70
2022/12/06 22:42:24;;;;;;;10.52;4.30;;;;;;;4.00;100.00;101911.94;10376301;28;20034;-70
2022/12/06 22:47:24;;;;;;;10.57;5.47;;;;;;;4.03;100.00;101917.03;10374656;28;20045;-69
2022/12/06 22:52:25;;;;;;;14.50;4.15;;;;;;;4.17;100.00;101931.94;10376098;28;20061;-71
2022/12/06 22:57:25;;;;;;;7.15;2.95;;;;;;;4.45;100.00;101910.81;10375044;28;20505;-70
2022/12/06 23:02:25;;;;;;;9.13;4.25;;;;;;;4.58;100.00;101917.66;10375436;28;20037;-70
2022/12/06 23:07:26;;;;;;;10.68;3.50;;;;;;;4.53;100.00;101914.53;10375895;28;20045;-70
2022/12/06 23:12:26;;;;;;;12.85;4.63;;;;;;;4.70;100.00;101912.22;10376484;28;20045;-72
2022/12/06 23:17:27;;;;;;;10.32;5.65;;;;;;;4.82;100.00;101922.72;10376513;28;20034;-68
2022/12/06 23:22:30;;;;;;;10.05;5.47;;;;;;;4.91;100.00;101926.41;10390194;28;20054;-69
2022/12/06 23:27:30;;;;;;;8.55;4.88;;;;;;;4.92;100.00;101905.81;10373231;28;20398;-69
2022/12/06 23:32:31;;;;;;;16.70;5.30;;;;;;;4.89;100.00;101906.94;10374453;28;20041;-70
2022/12/06 23:37:31;;;;;;;12.38;4.30;;;;;;;4.77;100.00;101898.13;10373152;28;20030;-70
2022/12/06 23:42:32;;;;;;;5.65;4.97;;;;;;;4.57;100.00;101909.75;10379260;28;20440;-70
2022/12/06 23:47:32;;;;;;;3.67;2.72;;;;;;;4.78;100.00;101926.63;10384168;28;20037;-69
2022/12/06 23:52:32;;;;;;;4.78;2.15;;;;;;;4.90;100.00;101912.13;10382500;28;20037;-70
2022/12/06 23:57:33;;;;;;;5.50;1.92;;;;;;;4.85;100.00;101908.16;10382291;28;20532;-70
